Time;durP1;ratioP1;P1;durP2;ratioP2;P2;SDS_P1;SDS_P2;PMS_P1;PMS_P2;Temp;Humidity;BMP_temperature;BMP_pressure;BME280_temperature;BME280_humidity;BME280_pressure;Samples;Min_cycle;Max_cycle;Signal;HPM_P1;HPM_P2
2021/07/21 00:02:17;;;;;;;13.97;9.80;;;15.30;91.10;;;;;;5112539;28;20185;-71
2021/07/21 00:04:43;;;;;;;12.97;9.67;;;15.30;91.20;;;;;;5114505;28;20043;-71
2021/07/21 00:07:14;;;;;;;13.97;9.53;;;15.30;91.30;;;;;;5114892;28;20356;-71
2021/07/21 00:09:39;;;;;;;15.20;10.35;;;15.30;91.30;;;;;;5115159;28;20066;-71
2021/07/21 00:14:50;;;;;;;10.83;8.27;;;15.20;91.40;;;;;;5115128;28;20048;-71
2021/07/21 00:17:22;;;;;;;18.17;9.47;;;15.10;91.40;;;;;;5114092;28;20131;-72
2021/07/21 00:20:07;;;;;;;16.33;9.35;;;15.10;91.40;;;;;;5114950;28;20077;-71
2021/07/21 00:22:41;;;;;;;13.13;9.23;;;15.10;91.50;;;;;;5114781;28;20384;-72
2021/07/21 00:25:10;;;;;;;10.27;8.40;;;15.10;91.60;;;;;;5114083;28;20062;-72
2021/07/21 00:27:37;;;;;;;11.93;8.90;;;15.10;91.60;;;;;;5114834;28;20054;-71
2021/07/21 00:30:07;;;;;;;11.77;9.47;;;15.10;91.60;;;;;;5115163;28;20052;-71
2021/07/21 00:32:33;;;;;;;12.97;9.93;;;15.10;91.70;;;;;;5114197;28;20047;-72
2021/07/21 00:34:59;;;;;;;14.73;8.87;;;15.00;91.60;;;;;;5114953;28;20092;-71
2021/07/21 00:37:24;;;;;;;11.17;8.60;;;15.00;91.70;;;;;;5114468;28;20070;-72
2021/07/21 00:39:50;;;;;;;13.77;9.73;;;15.00;91.70;;;;;;5113507;28;20142;-71
2021/07/21 00:42:16;;;;;;;13.90;9.73;;;15.00;91.70;;;;;;5114255;28;20051;-72
2021/07/21 00:44:42;;;;;;;13.23;9.77;;;15.00;91.80;;;;;;5114585;28;20055;-71
2021/07/21 00:47:08;;;;;;;13.77;10.27;;;14.90;91.80;;;;;;5113351;28;20097;-72
2021/07/21 00:49:33;;;;;;;12.67;9.97;;;14.90;91.90;;;;;;5114690;28;20059;-71
2021/07/21 00:52:03;;;;;;;15.83;11.60;;;14.90;92.30;;;;;;5114166;28;20086;-71
2021/07/21 00:54:29;;;;;;;15.47;11.20;;;14.90;91.90;;;;;;5113785;28;20044;-71
2021/07/21 00:56:54;;;;;;;14.80;11.07;;;14.90;91.90;;;;;;5114167;28;20054;-71
2021/07/21 00:59:20;;;;;;;14.00;10.40;;;14.90;92.00;;;;;;5113080;28;20056;-72
2021/07/21 01:01:46;;;;;;;14.10;10.53;;;14.90;92.00;;;;;;5114198;28;20048;-71
2021/07/21 01:04:13;;;;;;;14.37;10.13;;;14.90;92.10;;;;;;5113624;28;20046;-71
2021/07/21 01:06:38;;;;;;;14.33;10.47;;;14.80;92.10;;;;;;5113372;28;20781;-71
2021/07/21 01:09:08;;;;;;;12.80;9.80;;;14.80;92.20;;;;;;5113683;28;20147;-72
2021/07/21 01:11:47;;;;;;;12.80;9.23;;;14.80;92.20;;;;;;5113839;28;20051;-73
2021/07/21 01:14:30;;;;;;;13.00;8.70;;;14.80;92.20;;;;;;5111906;28;20059;-71
2021/07/21 01:16:59;;;;;;;12.93;9.67;;;14.80;92.20;;;;;;5113948;28;20138;-71
2021/07/21 01:20:04;;;;;;;12.73;10.57;;;14.80;92.30;;;;;;5113675;28;20132;-71
2021/07/21 01:22:33;;;;;;;13.80;9.97;;;14.80;92.30;;;;;;5112531;28;20116;-71
2021/07/21 01:25:17;;;;;;;15.13;9.43;;;14.80;92.30;;;;;;5113818;28;20422;-72
2021/07/21 01:27:48;;;;;;;13.83;10.07;;;14.80;92.30;;;;;;5112818;28;20562;-71
2021/07/21 01:30:16;;;;;;;;;;;14.80;92.40;;;;;;5113600;28;20055;-71
2021/07/21 01:32:49;;;;;;;10.10;8.07;;;14.80;92.40;;;;;;5113516;28;19920;-72
2021/07/21 01:35:22;;;;;;;13.33;9.77;;;14.80;92.70;;;;;;5112295;28;20048;-72
2021/07/21 01:37:59;;;;;;;14.67;10.17;;;14.80;92.30;;;;;;5113292;28;20051;-72
2021/07/21 01:40:34;;;;;;;13.93;10.03;;;14.80;92.30;;;;;;5113425;28;20047;-71
2021/07/21 01:43:02;;;;;;;14.33;9.47;;;14.90;92.30;;;;;;5112365;28;20044;-72
2021/07/21 01:45:30;;;;;;;14.47;10.10;;;14.90;92.40;;;;;;5113458;28;20082;-72
2021/07/21 01:48:01;;;;;;;12.40;10.63;;;14.80;92.40;;;;;;5113041;28;20403;-71
2021/07/21 01:50:30;;;;;;;15.43;10.57;;;14.90;92.50;;;;;;5112207;28;20047;-72
2021/07/21 01:52:58;;;;;;;15.17;10.83;;;14.90;92.40;;;;;;5113322;28;20057;-71
2021/07/21 01:55:25;;;;;;;14.80;10.87;;;14.90;92.40;;;;;;5113232;28;20122;-71
2021/07/21 01:57:52;;;;;;;14.43;10.70;;;14.90;92.50;;;;;;5112291;28;20090;-72
2021/07/21 02:00:18;;;;;;;16.23;11.17;;;14.90;92.50;;;;;;5112958;28;20070;-72
2021/07/21 02:02:48;;;;;;;16.80;11.33;;;14.90;92.60;;;;;;5112026;28;20554;-71
2021/07/21 02:05:16;;;;;;;13.20;9.80;;;15.00;92.70;;;;;;5112788;28;20043;-71
2021/07/21 02:07:44;;;;;;;16.13;11.07;;;15.00;92.70;;;;;;5113143;27;20040;-72
2021/07/21 02:10:17;;;;;;;16.97;11.43;;;15.00;92.70;;;;;;5111772;28;20184;-71
2021/07/21 02:12:43;;;;;;;14.97;10.10;;;15.10;92.80;;;;;;5112818;28;20044;-72
2021/07/21 02:15:09;;;;;;;16.97;12.67;;;15.10;92.70;;;;;;5112255;28;20067;-71
2021/07/21 02:17:39;;;;;;;15.63;11.17;;;15.10;92.80;;;;;;5112169;28;20051;-71
2021/07/21 02:20:10;;;;;;;14.43;10.60;;;15.10;92.80;;;;;;5112405;28;20105;-72
2021/07/21 02:22:36;;;;;;;12.32;10.05;;;15.00;92.80;;;;;;5112302;28;20055;-71
2021/07/21 02:25:03;;;;;;;12.63;9.13;;;15.00;92.80;;;;;;5111139;28;20059;-72
2021/07/21 02:27:30;;;;;;;15.87;11.13;;;15.00;92.90;;;;;;5112363;28;20048;-71
2021/07/21 02:29:56;;;;;;;15.50;10.57;;;14.90;92.90;;;;;;5112466;28;20043;-71
2021/07/21 02:32:35;;;;;;;12.77;10.07;;;14.90;92.90;;;;;;5111357;28;20480;-71
2021/07/21 02:35:02;;;;;;;16.43;9.90;;;14.90;92.90;;;;;;5112239;28;20077;-71
2021/07/21 02:37:27;;;;;;;14.43;10.17;;;14.90;92.90;;;;;;5112640;28;20047;-71
2021/07/21 02:39:54;;;;;;;16.20;10.70;;;14.90;92.90;;;;;;5111376;28;20055;-71
2021/07/21 02:42:21;;;;;;;13.17;9.43;;;14.90;92.90;;;;;;5112234;28;20058;-71
2021/07/21 02:44:49;;;;;;;14.40;9.47;;;14.90;93.00;;;;;;5111774;28;20477;-71
2021/07/21 02:47:15;;;;;;;13.83;10.53;;;14.90;93.00;;;;;;5111982;28;20055;-71
2021/07/21 02:49:43;;;;;;;12.57;9.67;;;14.90;93.00;;;;;;5112162;28;20066;-71
2021/07/21 02:52:22;;;;;;;13.37;10.20;;;14.90;93.00;;;;;;5111482;28;20055;-71
2021/07/21 02:55:17;;;;;;;14.07;11.40;;;14.90;93.00;;;;;;5112254;28;20047;-71
2021/07/21 02:57:55;;;;;;;17.97;12.93;;;14.80;93.00;;;;;;5112360;28;20134;-71
2021/07/21 03:00:26;;;;;;;17.40;11.43;;;14.80;93.10;;;;;;5111095;28;20066;-71
2021/07/21 03:02:52;;;;;;;19.17;11.77;;;14.80;93.20;;;;;;5112006;28;20433;-71
2021/07/21 03:05:21;;;;;;;18.40;13.13;;;14.80;93.60;;;;;;5111882;28;20051;-71
2021/07/21 03:07:52;;;;;;;19.77;12.57;;;14.80;93.20;;;;;;5111309;28;20048;-71
2021/07/21 03:10:19;;;;;;;19.23;12.80;;;14.80;93.30;;;;;;5111961;28;20124;-71
2021/07/21 03:13:06;;;;;;;18.50;11.77;;;14.70;93.30;;;;;;5111937;28;20468;-71
2021/07/21 03:15:37;;;;;;;17.27;12.07;;;14.70;93.30;;;;;;5112139;28;20048;-72
2021/07/21 03:18:08;;;;;;;18.38;13.73;;;14.70;93.40;;;;;;5111878;28;20047;-71
2021/07/21 03:20:35;;;;;;;17.40;11.63;;;14.70;93.40;;;;;;5110983;28;20142;-71
2021/07/21 03:23:01;;;;;;;17.20;11.53;;;14.70;93.40;;;;;;5111492;28;20047;-71
2021/07/21 03:25:28;;;;;;;17.53;11.63;;;14.70;93.40;;;;;;5111642;28;20040;-71
2021/07/21 03:27:56;;;;;;;17.97;11.97;;;14.80;93.50;;;;;;5110899;28;20078;-71
2021/07/21 03:30:24;;;;;;;17.23;11.83;;;14.70;93.50;;;;;;5111197;28;20090;-71
2021/07/21 03:32:51;;;;;;;15.93;11.07;;;14.70;93.50;;;;;;5111757;28;20040;-71
2021/07/21 03:35:18;;;;;;;17.20;11.67;;;14.80;93.60;;;;;;5110827;28;20130;-71
2021/07/21 03:37:45;;;;;;;17.00;11.60;;;14.80;93.70;;;;;;5113717;28;20039;-71
2021/07/21 03:40:12;;;;;;;16.07;11.40;;;14.80;93.60;;;;;;5115226;28;20047;-72
2021/07/21 03:42:39;;;;;;;16.77;11.13;;;14.80;93.70;;;;;;5114614;28;20376;-71
2021/07/21 03:45:14;;;;;;;16.83;11.33;;;14.90;93.70;;;;;;5115413;28;20051;-71
2021/07/21 03:47:42;;;;;;;16.17;11.30;;;14.90;93.60;;;;;;5115520;28;20040;-71
2021/07/21 03:50:09;;;;;;;15.40;11.23;;;14.90;93.60;;;;;;5114580;28;20180;-71
2021/07/21 03:52:36;;;;;;;16.23;10.83;;;14.90;93.60;;;;;;5115327;28;20048;-71
2021/07/21 03:55:03;;;;;;;14.97;11.13;;;14.90;93.60;;;;;;5115193;28;20500;-71
2021/07/21 03:57:30;;;;;;;13.87;10.17;;;15.00;93.60;;;;;;5114445;28;20048;-72
2021/07/21 03:59:56;;;;;;;15.40;11.20;;;15.00;93.60;;;;;;5115381;28;20043;-71
2021/07/21 04:02:24;;;;;;;15.83;10.73;;;15.00;93.60;;;;;;5114580;28;20048;-72
2021/07/21 04:04:50;;;;;;;13.70;10.33;;;15.00;93.60;;;;;;5115038;28;20047;-71
2021/07/21 04:07:18;;;;;;;14.87;10.80;;;15.00;93.60;;;;;;5114180;28;20039;-72
2021/07/21 04:09:47;;;;;;;14.77;10.17;;;15.00;93.60;;;;;;5113355;28;20460;-71
2021/07/21 04:12:15;;;;;;;14.23;9.73;;;15.00;93.60;;;;;;5114334;28;20059;-71
2021/07/21 04:14:46;;;;;;;13.53;10.37;;;15.10;93.60;;;;;;5114213;28;20061;-72
2021/07/21 04:17:12;;;;;;;17.10;11.25;;;15.10;93.60;;;;;;5112891;28;20151;-71
2021/07/21 04:19:41;;;;;;;12.50;9.60;;;15.20;93.60;;;;;;5113988;28;20480;-71
2021/07/21 04:22:08;;;;;;;16.60;10.83;;;15.30;93.50;;;;;;5113066;28;20052;-71
2021/07/21 04:24:34;;;;;;;15.13;10.40;;;15.30;93.40;;;;;;5113230;28;20134;-71
2021/07/21 04:27:04;;;;;;;13.73;9.80;;;15.40;93.40;;;;;;5113909;28;20047;-72
2021/07/21 04:29:32;;;;;;;13.20;9.83;;;15.40;93.40;;;;;;5113678;28;20134;-71
2021/07/21 04:31:59;;;;;;;14.83;10.87;;;15.40;93.40;;;;;;5112752;28;20381;-71
2021/07/21 04:34:26;;;;;;;16.37;11.53;;;15.50;93.40;;;;;;5112575;28;20126;-72
2021/07/21 04:36:54;;;;;;;13.73;11.50;;;15.50;93.30;;;;;;5113675;27;20051;-72
2021/07/21 04:39:21;;;;;;;17.53;11.77;;;15.50;93.30;;;;;;5112987;28;20145;-72
2021/07/21 04:41:55;;;;;;;18.47;12.00;;;15.50;93.20;;;;;;5111259;28;20121;-72
2021/07/21 04:44:21;;;;;;;16.30;11.70;;;15.50;93.30;;;;;;5113027;28;20085;-72
2021/07/21 04:46:48;;;;;;;18.77;12.17;;;15.50;93.30;;;;;;5110952;28;20039;-72
2021/07/21 04:49:19;;;;;;;15.17;11.33;;;15.50;93.30;;;;;;5112977;28;20488;-72
2021/07/21 04:51:47;;;;;;;16.30;12.53;;;15.50;93.30;;;;;;5112906;28;20051;-71
2021/07/21 04:54:15;;;;;;;17.07;12.20;;;15.50;93.20;;;;;;5114055;28;20131;-71
2021/07/21 04:56:41;;;;;;;15.37;11.93;;;15.60;93.20;;;;;;5114499;28;20075;-70
2021/07/21 04:59:06;;;;;;;17.27;11.37;;;15.60;93.20;;;;;;5112826;28;20071;-71
2021/07/21 05:01:33;;;;;;;15.17;11.37;;;15.60;93.20;;;;;;5113799;28;20043;-72
2021/07/21 05:03:59;;;;;;;15.93;10.93;;;15.60;93.10;;;;;;5113208;28;20064;-71
2021/07/21 05:06:25;;;;;;;17.53;11.77;;;15.70;93.00;;;;;;5112254;28;20408;-72
2021/07/21 05:08:51;;;;;;;12.63;10.17;;;15.70;92.90;;;;;;5113228;28;20051;-71
2021/07/21 05:11:20;;;;;;;14.70;10.40;;;15.70;92.90;;;;;;5112443;28;20567;-71
2021/07/21 05:13:46;;;;;;;12.43;10.37;;;15.70;92.80;;;;;;5112411;28;20098;-71
2021/07/21 05:16:12;;;;;;;15.57;11.27;;;15.80;92.70;;;;;;5112429;28;20130;-72
2021/07/21 05:18:38;;;;;;;13.00;10.10;;;15.80;92.60;;;;;;5112748;28;20059;-71
2021/07/21 05:21:05;;;;;;;15.17;10.30;;;15.90;92.60;;;;;;5111637;28;20079;-72
2021/07/21 05:23:32;;;;;;;12.70;10.27;;;15.90;92.50;;;;;;5112966;28;20069;-72
2021/07/21 05:26:00;;;;;;;15.80;11.23;;;16.00;92.50;;;;;;5112531;28;20055;-71
2021/07/21 05:28:26;;;;;;;16.53;10.27;;;16.10;92.20;;;;;;5111911;28;20055;-71
2021/07/21 05:30:53;;;;;;;13.03;10.70;;;16.10;92.10;;;;;;5112363;28;20054;-71
2021/07/21 05:33:19;;;;;;;15.33;10.73;;;16.20;92.00;;;;;;5112004;28;20114;-72
2021/07/21 05:35:45;;;;;;;13.23;9.97;;;16.20;92.00;;;;;;5111435;28;20469;-72
2021/07/21 05:38:11;;;;;;;12.60;10.27;;;16.20;91.90;;;;;;5112223;28;20097;-71
2021/07/21 05:40:37;;;;;;;15.50;11.20;;;16.30;92.00;;;;;;5111949;28;20044;-72
2021/07/21 05:43:04;;;;;;;12.77;10.37;;;16.30;91.90;;;;;;5112064;28;20220;-72
2021/07/21 05:45:29;;;;;;;14.20;10.60;;;16.40;91.80;;;;;;5112285;28;20127;-72
2021/07/21 05:47:55;;;;;;;15.90;10.37;;;16.40;91.70;;;;;;5111903;28;20122;-71
2021/07/21 05:50:21;;;;;;;14.13;10.97;;;16.40;91.60;;;;;;5111859;28;20111;-71
2021/07/21 05:52:46;;;;;;;13.87;10.07;;;16.50;91.50;;;;;;5112600;28;20484;-71
2021/07/21 05:55:13;;;;;;;13.93;10.13;;;16.50;91.40;;;;;;5110917;28;20055;-71
2021/07/21 05:57:39;;;;;;;13.17;10.00;;;16.60;91.40;;;;;;5112008;28;20048;-71
2021/07/21 06:00:08;;;;;;;13.57;10.33;;;16.60;91.30;;;;;;5111074;28;20050;-71
2021/07/21 06:02:34;;;;;;;14.10;10.47;;;16.70;91.10;;;;;;5111621;28;20039;-71
2021/07/21 06:04:59;;;;;;;14.00;10.37;;;16.70;91.10;;;;;;5111944;28;20119;-71
2021/07/21 06:07:25;;;;;;;15.23;11.00;;;16.80;91.00;;;;;;5111871;28;20050;-72
2021/07/21 06:09:51;;;;;;;12.43;10.33;;;16.80;90.90;;;;;;5111171;28;20381;-71
2021/07/21 06:12:16;;;;;;;13.47;10.83;;;16.90;90.80;;;;;;5111296;28;20088;-72
2021/07/21 06:14:42;;;;;;;15.13;10.90;;;16.90;90.80;;;;;;5111681;28;20130;-71
2021/07/21 06:17:08;;;;;;;14.57;10.73;;;17.00;90.60;;;;;;5110675;28;20047;-71
2021/07/21 06:19:34;;;;;;;13.40;9.43;;;17.10;90.50;;;;;;5111926;28;20040;-71
2021/07/21 06:22:02;;;;;;;14.17;9.67;;;17.10;90.20;;;;;;5111093;28;20055;-71
2021/07/21 06:24:28;;;;;;;13.03;9.37;;;17.20;90.00;;;;;;5111447;28;20047;-70
2021/07/21 06:26:55;;;;;;;13.73;8.37;;;17.30;90.00;;;;;;5112286;28;20116;-70
2021/07/21 06:29:20;;;;;;;11.67;9.13;;;17.40;89.60;;;;;;5111806;28;20104;-70
2021/07/21 06:31:46;;;;;;;13.63;9.03;;;17.40;89.20;;;;;;5111443;28;20353;-70
2021/07/21 06:34:13;;;;;;;11.77;8.57;;;17.50;89.10;;;;;;5105500;28;20051;-69
2021/07/21 06:36:38;;;;;;;12.77;9.23;;;17.60;88.40;;;;;;5108811;28;20108;-69
2021/07/21 06:39:04;;;;;;;11.77;8.23;;;17.70;87.80;;;;;;5107884;28;20043;-69
2021/07/21 06:41:30;;;;;;;14.07;8.90;;;17.80;87.60;;;;;;5107719;28;20070;-69
2021/07/21 06:43:59;;;;;;;13.37;8.97;;;17.80;87.50;;;;;;5107478;28;20047;-70
2021/07/21 06:46:25;;;;;;;13.43;9.00;;;17.90;87.30;;;;;;5105854;28;20099;-68
2021/07/21 06:48:52;;;;;;;14.30;8.57;;;18.00;86.80;;;;;;5107760;28;20609;-68
2021/07/21 06:51:19;;;;;;;10.17;7.93;;;18.10;85.80;;;;;;5106903;28;20046;-69
2021/07/21 06:53:45;;;;;;;10.03;8.40;;;18.20;85.40;;;;;;5107916;28;20039;-69
2021/07/21 06:56:11;;;;;;;10.80;6.77;;;18.40;84.80;;;;;;5105095;28;20052;-69
2021/07/21 06:58:37;;;;;;;9.23;7.43;;;18.50;84.20;;;;;;5106799;28;20062;-68
2021/07/21 07:01:03;;;;;;;8.80;7.13;;;18.50;82.90;;;;;;5106862;28;20519;-67
2021/07/21 07:03:28;;;;;;;9.90;7.33;;;18.50;82.20;;;;;;5108441;28;20089;-67
2021/07/21 07:05:54;;;;;;;11.13;7.07;;;18.50;81.60;;;;;;5107714;28;20040;-67
2021/07/21 07:08:20;;;;;;;9.10;6.70;;;18.60;81.30;;;;;;5108196;28;20073;-67
2021/07/21 07:10:46;;;;;;;9.33;6.80;;;18.60;80.60;;;;;;5108440;28;20545;-66
2021/07/21 07:13:12;;;;;;;10.37;7.13;;;18.60;80.50;;;;;;5109970;28;20044;-67
2021/07/21 07:15:38;;;;;;;8.67;6.27;;;18.60;80.40;;;;;;5112916;28;20048;-67
2021/07/21 07:18:06;;;;;;;9.70;6.80;;;18.70;80.50;;;;;;5112733;28;20047;-70
2021/07/21 07:20:32;;;;;;;7.83;6.80;;;18.70;79.80;;;;;;5115027;28;20401;-67
2021/07/21 07:22:58;;;;;;;9.17;6.77;;;18.80;79.50;;;;;;5115679;28;20052;-66
2021/07/21 07:25:24;;;;;;;7.77;6.23;;;18.90;79.20;;;;;;5115552;27;20180;-67
2021/07/21 07:27:50;;;;;;;9.60;6.63;;;19.00;78.40;;;;;;5114818;28;20151;-64
2021/07/21 07:30:15;;;;;;;9.27;7.03;;;19.10;78.30;;;;;;5115343;28;20404;-64
2021/07/21 07:32:41;;;;;;;8.90;6.97;;;19.10;77.60;;;;;;5115580;28;20055;-65
2021/07/21 07:35:08;;;;;;;10.00;6.67;;;19.20;76.40;;;;;;5114382;28;20052;-65
2021/07/21 07:37:34;;;;;;;8.00;6.30;;;19.20;76.10;;;;;;5115415;28;20465;-65
2021/07/21 07:39:59;;;;;;;7.90;6.13;;;19.30;75.10;;;;;;5115001;28;20120;-65
2021/07/21 07:42:25;;;;;;;9.23;6.40;;;19.30;74.50;;;;;;5114482;28;20156;-66
2021/07/21 07:44:50;;;;;;;8.90;6.30;;;19.30;74.10;;;;;;5115600;28;20499;-66
2021/07/21 07:47:16;;;;;;;8.27;6.57;;;19.40;74.20;;;;;;5114347;28;20140;-65
2021/07/21 07:49:42;;;;;;;8.97;6.87;;;19.40;74.00;;;;;;5114673;28;20036;-65
2021/07/21 07:52:08;;;;;;;8.27;7.27;;;19.40;74.00;;;;;;5114275;28;20514;-65
2021/07/21 07:54:33;;;;;;;8.20;7.27;;;19.50;73.30;;;;;;5113615;28;20081;-66
2021/07/21 07:56:59;;;;;;;10.30;6.93;;;19.50;72.90;;;;;;5114355;28;20044;-65
2021/07/21 07:59:24;;;;;;;9.53;6.60;;;19.60;73.20;;;;;;5114373;28;20051;-66
2021/07/21 08:01:50;;;;;;;8.47;6.77;;;19.60;72.90;;;;;;5113823;28;20048;-67
2021/07/21 08:04:16;;;;;;;9.27;6.60;;;19.70;72.40;;;;;;5113969;28;20040;-66
2021/07/21 08:06:42;;;;;;;9.53;7.30;;;19.70;71.80;;;;;;5114254;28;20055;-66
2021/07/21 08:09:14;;;;;;;8.73;6.50;;;19.70;72.00;;;;;;5113361;28;20081;-66
2021/07/21 08:11:45;;;;;;;10.60;6.93;;;19.80;70.70;;;;;;5114442;28;20075;-66
2021/07/21 08:14:15;;;;;;;8.52;6.55;;;19.80;70.30;;;;;;5111845;28;20063;-65
2021/07/21 08:16:41;;;;;;;7.73;6.17;;;19.90;70.20;;;;;;5113486;28;20052;-67
2021/07/21 08:19:07;;;;;;;9.43;6.93;;;20.00;70.70;;;;;;5111510;28;20059;-66
2021/07/21 08:21:33;;;;;;;8.77;7.27;;;20.00;70.70;;;;;;5113784;28;20060;-66
2021/07/21 08:23:59;;;;;;;9.63;7.37;;;20.10;70.40;;;;;;5112649;28;20099;-67
2021/07/21 08:26:26;;;;;;;12.13;7.83;;;20.10;70.20;;;;;;5114050;28;20047;-67
2021/07/21 08:28:52;;;;;;;7.70;6.63;;;20.10;70.10;;;;;;5114236;28;20044;-66
2021/07/21 08:31:18;;;;;;;8.93;7.10;;;20.20;70.50;;;;;;5112622;28;20055;-66
2021/07/21 08:33:44;;;;;;;10.00;7.60;;;20.20;70.00;;;;;;5114439;28;20047;-66
2021/07/21 08:36:11;;;;;;;10.07;7.00;;;20.30;69.60;;;;;;5114080;28;20062;-66
2021/07/21 08:38:37;;;;;;;8.80;6.93;;;20.30;69.70;;;;;;5112774;28;20040;-66
2021/07/21 08:41:03;;;;;;;10.63;7.83;;;20.40;69.60;;;;;;5113037;28;20051;-65
2021/07/21 08:43:30;;;;;;;8.13;7.00;;;20.50;70.00;;;;;;5113066;28;20040;-66
2021/07/21 08:45:58;;;;;;;8.40;6.53;;;20.50;70.00;;;;;;5113234;28;20059;-66
2021/07/21 08:48:24;;;;;;;9.73;7.03;;;20.60;69.40;;;;;;5112951;28;20100;-66
2021/07/21 08:50:49;;;;;;;8.77;6.43;;;20.70;69.10;;;;;;5112176;28;20794;-67
2021/07/21 08:53:17;;;;;;;11.00;7.63;;;20.70;68.60;;;;;;5112929;28;20044;-66
2021/07/21 08:55:43;;;;;;;9.50;6.97;;;20.80;68.50;;;;;;5113131;28;20061;-65
2021/07/21 08:58:11;;;;;;;10.02;7.18;;;20.80;68.90;;;;;;5111839;28;20039;-66
2021/07/21 09:00:37;;;;;;;7.50;6.43;;;21.00;67.90;;;;;;5112958;28;20047;-65
2021/07/21 09:03:03;;;;;;;8.95;6.55;;;21.00;67.00;;;;;;5112975;28;20055;-66
2021/07/21 09:05:29;;;;;;;12.25;6.68;;;21.10;66.40;;;;;;5111830;28;20035;-66
2021/07/21 09:07:54;;;;;;;8.40;6.72;;;21.10;66.40;;;;;;5113346;28;20048;-66
2021/07/21 09:10:20;;;;;;;8.90;6.68;;;21.10;66.80;;;;;;5112547;28;20050;-67
2021/07/21 09:12:49;;;;;;;9.80;7.27;;;21.10;66.90;;;;;;5112070;28;20047;-64
2021/07/21 09:15:20;;;;;;;8.82;7.22;;;21.20;66.60;;;;;;5110099;28;20446;-67
2021/07/21 09:18:09;;;;;;;8.90;6.63;;;21.20;66.40;;;;;;5112960;28;20052;-66
2021/07/21 09:20:43;;;;;;;8.30;5.80;;;21.20;66.40;;;;;;5109391;28;20043;-66
2021/07/21 09:23:10;;;;;;;9.10;6.45;;;21.20;66.10;;;;;;5112600;28;20130;-66
2021/07/21 09:25:38;;;;;;;9.27;7.40;;;21.20;65.80;;;;;;5112373;28;20518;-66
2021/07/21 09:28:08;;;;;;;10.20;6.67;;;21.20;65.60;;;;;;5111762;28;20067;-66
2021/07/21 09:30:39;;;;;;;10.23;7.00;;;21.10;66.40;;;;;;5109698;28;20043;-64
2021/07/21 09:33:10;;;;;;;9.60;7.30;;;21.10;65.50;;;;;;5111577;28;20048;-64
2021/07/21 09:35:44;;;;;;;8.50;7.20;;;21.10;65.70;;;;;;5109270;28;20083;-63
2021/07/21 09:38:15;;;;;;;8.90;6.77;;;21.10;65.90;;;;;;5110119;28;20047;-63
2021/07/21 09:40:47;;;;;;;10.13;6.55;;;21.20;66.30;;;;;;5111561;28;20039;-63
2021/07/21 09:43:13;;;;;;;;;;;21.20;66.60;;;;;;5112448;28;20043;-64
2021/07/21 09:45:41;;;;;;;9.23;7.22;;;21.30;65.90;;;;;;5113741;28;19920;-66
2021/07/21 09:48:07;;;;;;;10.20;7.60;;;21.30;66.30;;;;;;5112022;28;20537;-66
2021/07/21 09:50:35;;;;;;;10.30;6.82;;;21.40;66.40;;;;;;5112954;28;20043;-65
2021/07/21 09:53:05;;;;;;;9.30;7.28;;;21.40;66.20;;;;;;5112499;28;20078;-66
2021/07/21 09:55:34;;;;;;;7.80;6.95;;;21.60;65.80;;;;;;5110857;28;20051;-66
2021/07/21 09:58:19;;;;;;;10.32;7.38;;;21.70;65.50;;;;;;5111312;27;20439;-66
2021/07/21 10:00:48;;;;;;;9.50;6.82;;;21.80;65.30;;;;;;5110565;28;20492;-65
2021/07/21 10:03:18;;;;;;;10.15;7.00;;;21.90;65.30;;;;;;5111081;28;20415;-66
2021/07/21 10:05:51;;;;;;;8.85;6.60;;;22.00;64.40;;;;;;5112586;28;20051;-66
2021/07/21 10:08:44;;;;;;;12.63;7.00;;;22.10;63.80;;;;;;5111022;28;20127;-66
2021/07/21 10:11:19;;;;;;;11.15;7.35;;;22.20;64.10;;;;;;5110288;28;20050;-65
2021/07/21 10:13:45;;;;;;;8.90;7.07;;;22.20;63.60;;;;;;5109472;28;20046;-65
2021/07/21 10:16:11;;;;;;;12.40;6.60;;;22.30;63.40;;;;;;5110454;28;20043;-66
2021/07/21 10:18:36;;;;;;;8.48;7.47;;;22.30;63.70;;;;;;5112111;28;20085;-66
2021/07/21 10:21:02;;;;;;;9.60;6.90;;;22.30;62.90;;;;;;5111582;28;20059;-66
2021/07/21 10:23:28;;;;;;;8.02;6.50;;;22.20;62.90;;;;;;5111327;28;20047;-66
2021/07/21 10:25:53;;;;;;;8.60;6.70;;;22.20;62.80;;;;;;5112780;28;20088;-67
2021/07/21 10:28:20;;;;;;;9.02;6.88;;;22.10;62.70;;;;;;5111800;28;20055;-65
2021/07/21 10:30:45;;;;;;;8.95;7.10;;;22.00;62.10;;;;;;5111253;28;20131;-65
2021/07/21 10:33:12;;;;;;;9.60;6.90;;;22.00;62.30;;;;;;5111638;28;20062;-64
2021/07/21 10:35:38;;;;;;;10.10;7.45;;;21.90;62.80;;;;;;5112042;28;20078;-65
2021/07/21 10:38:03;;;;;;;11.23;7.72;;;21.90;63.20;;;;;;5111083;28;20058;-65
2021/07/21 10:40:35;;;;;;;8.93;6.57;;;22.00;63.30;;;;;;5112015;28;20045;-64
2021/07/21 10:43:01;;;;;;;8.30;6.50;;;22.00;63.70;;;;;;5111562;28;20051;-64
2021/07/21 10:45:35;;;;;;;10.27;7.50;;;22.10;63.60;;;;;;5111287;28;20527;-64
2021/07/21 10:48:10;;;;;;;10.98;7.60;;;22.40;63.30;;;;;;5112110;28;20128;-65
2021/07/21 10:53:52;;;;;;;9.52;7.47;;;22.70;62.60;;;;;;5111616;28;20059;-65
2021/07/21 10:59:12;;;;;;;9.95;7.63;;;22.50;62.00;;;;;;5110692;28;20511;-65
2021/07/21 11:02:00;;;;;;;9.55;6.90;;;22.50;61.50;;;;;;5111738;28;20051;-65
2021/07/21 11:04:44;;;;;;;10.52;7.40;;;22.50;61.30;;;;;;5110916;28;20051;-65
2021/07/21 11:07:11;;;;;;;9.60;7.15;;;22.60;59.90;;;;;;5111413;28;20044;-65
2021/07/21 11:09:41;;;;;;;8.45;6.78;;;22.60;59.80;;;;;;5111738;28;20063;-65
2021/07/21 11:12:07;;;;;;;9.98;7.53;;;22.70;59.30;;;;;;5110584;28;20131;-65
2021/07/21 11:14:34;;;;;;;9.52;7.70;;;22.60;59.20;;;;;;5111548;28;20068;-65
2021/07/21 11:17:08;;;;;;;9.38;7.93;;;22.40;60.30;;;;;;5111213;28;20048;-65
2021/07/21 11:19:48;;;;;;;10.13;7.43;;;22.30;60.10;;;;;;5110826;28;20433;-65
2021/07/21 11:22:19;;;;;;;10.27;7.53;;;22.20;60.30;;;;;;5111107;28;20066;-65
2021/07/21 11:25:20;;;;;;;11.45;7.28;;;22.10;61.40;;;;;;5111411;28;20051;-65
2021/07/21 11:28:01;;;;;;;10.65;6.93;;;22.10;62.30;;;;;;5111913;28;20120;-65
2021/07/21 11:30:57;;;;;;;10.13;7.60;;;22.10;61.90;;;;;;5111528;28;20125;-65
2021/07/21 11:33:54;;;;;;;16.42;8.75;;;22.10;61.70;;;;;;5110617;28;20567;-65
2021/07/21 11:36:38;;;;;;;11.23;7.68;;;22.10;61.50;;;;;;5111359;28;20080;-65
2021/07/21 11:39:05;;;;;;;8.93;7.25;;;22.10;61.90;;;;;;5110990;28;20137;-65
2021/07/21 11:41:47;;;;;;;9.80;7.40;;;22.00;61.50;;;;;;5110566;28;20491;-65
2021/07/21 11:44:28;;;;;;;8.95;6.85;;;22.00;61.20;;;;;;5111278;28;20395;-65
2021/07/21 11:46:55;;;;;;;9.57;7.55;;;22.00;61.30;;;;;;5110812;28;20056;-65
2021/07/21 11:49:22;;;;;;;9.70;6.97;;;21.90;61.30;;;;;;5110931;28;20463;-65
2021/07/21 11:51:59;;;;;;;9.90;7.78;;;22.00;61.80;;;;;;5111317;28;20044;-65
2021/07/21 11:54:34;;;;;;;9.35;6.63;;;22.10;62.90;;;;;;5110667;28;20040;-65
2021/07/21 11:57:01;;;;;;;9.00;6.90;;;22.20;62.10;;;;;;5111018;28;20435;-65
2021/07/21 11:59:34;;;;;;;15.43;8.10;;;22.20;61.70;;;;;;5114415;28;20044;-65
2021/07/21 12:02:01;;;;;;;11.98;8.25;;;22.30;61.30;;;;;;5114094;28;20068;-65
2021/07/21 12:04:28;;;;;;;9.98;7.47;;;22.40;60.30;;;;;;5114898;28;20059;-65
2021/07/21 12:06:54;;;;;;;9.88;7.45;;;22.40;60.30;;;;;;5114556;28;20134;-65
2021/07/21 12:09:31;;;;;;;9.48;7.72;;;22.50;60.90;;;;;;5113815;28;20075;-65
2021/07/21 12:12:03;;;;;;;12.85;7.95;;;22.60;61.00;;;;;;5114848;28;20063;-65
2021/07/21 12:14:29;;;;;;;9.02;7.22;;;22.60;60.30;;;;;;5114443;28;20115;-65
2021/07/21 12:17:08;;;;;;;10.60;7.93;;;22.60;60.40;;;;;;5114733;28;20059;-65
2021/07/21 12:19:35;;;;;;;12.48;7.68;;;22.60;60.00;;;;;;5115021;28;20105;-65
2021/07/21 12:22:15;;;;;;;8.77;7.00;;;22.50;59.60;;;;;;5113072;28;20208;-65
2021/07/21 12:24:42;;;;;;;9.80;7.50;;;22.40;59.50;;;;;;5114710;28;20048;-65
2021/07/21 12:27:09;;;;;;;11.60;7.75;;;22.30;60.30;;;;;;5114371;28;20485;-65
2021/07/21 12:29:36;;;;;;;9.52;7.78;;;22.20;60.70;;;;;;5113620;28;20071;-65
2021/07/21 12:32:17;;;;;;;9.02;7.43;;;22.20;61.10;;;;;;5114428;28;20064;-65
2021/07/21 12:34:53;;;;;;;12.65;7.68;;;22.10;61.70;;;;;;5114603;28;20048;-65
2021/07/21 12:37:30;;;;;;;11.35;7.60;;;22.20;61.90;;;;;;5113357;28;20617;-65
2021/07/21 12:39:58;;;;;;;11.02;7.95;;;22.30;62.10;;;;;;5114039;28;20506;-65
2021/07/21 12:42:29;;;;;;;10.45;7.63;;;22.40;61.50;;;;;;5113861;28;20051;-65
2021/07/21 12:45:02;;;;;;;8.85;7.45;;;22.50;61.10;;;;;;5113619;28;20044;-66
2021/07/21 12:47:39;;;;;;;10.07;7.70;;;22.50;61.20;;;;;;5114321;28;20047;-66
2021/07/21 12:50:06;;;;;;;9.93;7.70;;;22.50;61.10;;;;;;5113660;28;20065;-66
2021/07/21 12:52:34;;;;;;;11.52;7.70;;;22.50;61.30;;;;;;5113732;28;20044;-66
2021/07/21 12:55:02;;;;;;;9.63;8.05;;;22.40;61.50;;;;;;5113989;28;20123;-66